Time;durP1;ratioP1;P1;durP2;ratioP2;P2;SDS_P1;SDS_P2;PMS_P1;PMS_P2;Temp;Humidity;BMP_temperature;BMP_pressure;BME280_temperature;BME280_humidity;BME280_pressure;Samples;Min_cycle;Max_cycle;Signal;HPM_P1;HPM_P2
2023/12/18 00:02:06;;;;;;;17.00;4.90;;;10.30;99.90;;;;;;5014566;28;20026;-76
2023/12/18 00:04:32;;;;;;;19.73;4.60;;;10.20;99.90;;;;;;5013924;28;20030;-75
2023/12/18 00:06:57;;;;;;;19.30;4.40;;;10.20;99.90;;;;;;5014004;28;20470;-74
2023/12/18 00:09:23;;;;;;;18.58;4.70;;;10.20;99.90;;;;;;5013602;28;20104;-74
2023/12/18 00:11:48;;;;;;;19.48;4.57;;;10.20;99.90;;;;;;5014435;28;20120;-75
2023/12/18 00:14:14;;;;;;;20.45;4.70;;;10.20;99.90;;;;;;5011641;28;20034;-75
2023/12/18 00:16:40;;;;;;;18.85;4.75;;;10.30;99.90;;;;;;4994332;28;20034;-74
2023/12/18 00:19:05;;;;;;;19.15;4.90;;;10.30;99.90;;;;;;4994614;28;20055;-75
2023/12/18 00:21:31;;;;;;;19.08;4.53;;;10.30;99.90;;;;;;4994524;28;20034;-75
2023/12/18 00:23:56;;;;;;;18.02;4.78;;;10.30;99.90;;;;;;4994387;28;20514;-76
2023/12/18 00:26:23;;;;;;;20.95;5.07;;;10.30;99.90;;;;;;4994122;28;20037;-74
2023/12/18 00:28:48;;;;;;;21.08;5.07;;;10.30;99.90;;;;;;4994145;28;20034;-76
2023/12/18 00:31:14;;;;;;;23.02;5.40;;;10.30;99.90;;;;;;4994393;28;20379;-74
2023/12/18 00:33:39;;;;;;;19.15;5.05;;;10.30;99.90;;;;;;4994223;28;20130;-73
2023/12/18 00:36:05;;;;;;;22.73;5.45;;;10.30;99.90;;;;;;4994210;28;20121;-75
2023/12/18 00:38:31;;;;;;;23.83;5.22;;;10.30;99.90;;;;;;4993977;28;20033;-76
2023/12/18 00:40:56;;;;;;;21.98;5.47;;;10.30;99.90;;;;;;4993644;28;20164;-75
2023/12/18 00:43:22;;;;;;;20.88;6.05;;;10.30;99.90;;;;;;4993671;28;20113;-74
2023/12/18 00:45:47;;;;;;;21.38;5.18;;;10.40;99.90;;;;;;4994130;28;20386;-75
2023/12/18 00:48:13;;;;;;;23.58;4.70;;;10.40;99.90;;;;;;4994015;28;20049;-76
2023/12/18 00:50:39;;;;;;;24.00;5.45;;;10.40;99.90;;;;;;4993964;28;20061;-76
2023/12/18 00:53:04;;;;;;;24.40;5.43;;;10.40;99.90;;;;;;4993758;28;20030;-74
2023/12/18 00:55:31;;;;;;;24.10;6.15;;;10.40;99.90;;;;;;4994025;28;20042;-73
2023/12/18 00:57:57;;;;;;;16.65;5.00;;;10.40;99.90;;;;;;4993639;28;20033;-74
2023/12/18 01:00:22;;;;;;;21.30;4.60;;;10.30;99.90;;;;;;4994296;28;20026;-74
2023/12/18 01:02:48;;;;;;;22.67;5.88;;;10.40;99.90;;;;;;4993928;28;20058;-73
2023/12/18 01:05:16;;;;;;;20.67;4.60;;;10.40;99.90;;;;;;4993758;28;20058;-76
2023/12/18 01:07:42;;;;;;;21.95;5.13;;;10.40;99.90;;;;;;4993416;28;20109;-75
2023/12/18 01:10:08;;;;;;;29.63;6.20;;;10.40;99.90;;;;;;4993387;28;20411;-75
2023/12/18 01:12:34;;;;;;;23.27;4.97;;;10.40;99.90;;;;;;4993357;28;20026;-73
2023/12/18 01:14:59;;;;;;;25.00;5.68;;;10.40;99.90;;;;;;4993009;28;20463;-74
2023/12/18 01:17:25;;;;;;;23.13;5.32;;;10.50;99.90;;;;;;4993549;28;20112;-73
2023/12/18 01:19:50;;;;;;;28.23;5.50;;;10.50;99.90;;;;;;4993243;28;20046;-75
2023/12/18 01:22:16;;;;;;;26.58;5.45;;;10.40;99.90;;;;;;4993832;28;20061;-75
2023/12/18 01:24:42;;;;;;;21.10;5.28;;;10.50;99.90;;;;;;4993300;28;20077;-76
2023/12/18 01:27:07;;;;;;;22.80;6.65;;;10.40;99.90;;;;;;4993165;28;20034;-74
2023/12/18 01:29:33;;;;;;;22.58;5.40;;;10.40;99.90;;;;;;4993482;28;20352;-75
2023/12/18 01:31:58;;;;;;;22.38;4.88;;;10.40;99.90;;;;;;4993390;28;20058;-76
2023/12/18 01:34:24;;;;;;;19.73;4.95;;;10.40;99.90;;;;;;4993342;28;20026;-74
2023/12/18 01:36:49;;;;;;;20.52;5.68;;;10.40;99.90;;;;;;4993251;28;20053;-75
2023/12/18 01:39:15;;;;;;;17.80;5.32;;;10.40;99.90;;;;;;4993380;28;20026;-75
2023/12/18 01:41:40;;;;;;;22.05;5.25;;;10.50;99.90;;;;;;4993135;28;20471;-76
2023/12/18 01:44:06;;;;;;;23.98;5.30;;;10.40;99.90;;;;;;4993254;28;20030;-75
2023/12/18 01:46:34;;;;;;;20.02;4.95;;;10.50;99.90;;;;;;4993102;28;20034;-73
2023/12/18 01:49:01;;;;;;;24.52;5.82;;;10.50;99.90;;;;;;4993500;28;20037;-76
2023/12/18 01:51:27;;;;;;;24.80;5.65;;;10.50;99.90;;;;;;4993245;28;20030;-74
2023/12/18 01:53:55;;;;;;;24.00;5.18;;;10.50;99.90;;;;;;4993175;28;20030;-75
2023/12/18 01:56:25;;;;;;;33.13;5.85;;;10.50;99.90;;;;;;4992907;28;20022;-76
2023/12/18 01:58:53;;;;;;;23.73;5.03;;;10.50;99.90;;;;;;4993187;28;20089;-74
2023/12/18 02:01:18;;;;;;;29.55;5.60;;;10.50;99.90;;;;;;4992979;28;20038;-74
2023/12/18 02:03:44;;;;;;;20.92;5.18;;;10.50;99.90;;;;;;4992954;28;20033;-72
2023/12/18 02:06:13;;;;;;;24.10;5.43;;;10.50;99.90;;;;;;4992899;28;20037;-73
2023/12/18 02:08:39;;;;;;;29.17;5.78;;;10.50;99.90;;;;;;4991747;28;20047;-73
2023/12/18 02:11:05;;;;;;;23.88;4.97;;;10.50;99.90;;;;;;4992876;28;20470;-73
2023/12/18 02:13:31;;;;;;;21.25;5.43;;;10.50;99.90;;;;;;5002651;28;20026;-75
2023/12/18 02:15:59;;;;;;;20.50;5.05;;;10.50;99.90;;;;;;4992847;28;20081;-76
2023/12/18 02:18:25;;;;;;;19.95;4.78;;;10.50;99.90;;;;;;4992922;28;20073;-75
2023/12/18 02:20:51;;;;;;;25.67;5.13;;;10.50;99.90;;;;;;4992757;28;20770;-75
2023/12/18 02:23:16;;;;;;;23.10;5.57;;;10.50;99.90;;;;;;4994170;28;20027;-74
2023/12/18 02:25:42;;;;;;;22.38;4.47;;;10.50;99.90;;;;;;5012499;28;20022;-73
2023/12/18 02:28:10;;;;;;;27.50;5.20;;;10.50;99.90;;;;;;5010463;28;20038;-75
2023/12/18 02:30:36;;;;;;;27.58;6.03;;;10.50;99.90;;;;;;5002620;28;20022;-74
2023/12/18 02:33:02;;;;;;;23.48;5.10;;;10.50;99.90;;;;;;5005068;28;20374;-76
2023/12/18 02:35:27;;;;;;;23.95;4.80;;;10.50;99.90;;;;;;5004779;28;20018;-76
2023/12/18 02:37:53;;;;;;;25.17;5.68;;;10.50;99.90;;;;;;5005829;28;20036;-75
2023/12/18 02:40:18;;;;;;;22.30;5.20;;;10.50;99.90;;;;;;5005027;28;20725;-73
2023/12/18 02:42:44;;;;;;;25.85;4.80;;;10.50;99.90;;;;;;5006190;28;20034;-76
2023/12/18 02:45:10;;;;;;;19.58;4.93;;;10.50;99.90;;;;;;5009388;28;20117;-74
2023/12/18 02:47:36;;;;;;;24.23;5.32;;;10.50;99.90;;;;;;5001208;28;20113;-75
2023/12/18 02:50:01;;;;;;;21.50;4.80;;;10.60;99.90;;;;;;5008633;28;20034;-73
2023/12/18 02:52:27;;;;;;;20.67;5.20;;;10.50;99.90;;;;;;5005657;28;20060;-73
2023/12/18 02:54:52;;;;;;;23.30;4.75;;;10.50;99.90;;;;;;5004492;28;20038;-75
2023/12/18 02:57:18;;;;;;;29.40;5.57;;;10.50;99.90;;;;;;5007483;28;20034;-73
2023/12/18 02:59:44;;;;;;;21.40;4.97;;;10.50;99.90;;;;;;5007980;28;20030;-74
2023/12/18 03:02:09;;;;;;;27.98;4.93;;;10.50;99.90;;;;;;5006739;28;20105;-76
2023/12/18 03:04:41;;;;;;;23.55;5.15;;;10.50;99.90;;;;;;5004569;28;20106;-76
2023/12/18 03:07:08;;;;;;;24.67;5.30;;;10.50;99.90;;;;;;5003977;28;20073;-74
2023/12/18 03:09:34;;;;;;;22.77;4.68;;;10.50;99.90;;;;;;5002073;28;20056;-74
2023/12/18 03:12:00;;;;;;;26.33;4.53;;;10.50;99.90;;;;;;5005124;28;20053;-75
2023/12/18 03:14:25;;;;;;;20.63;4.07;;;10.50;99.90;;;;;;5005632;28;20426;-75
2023/12/18 03:16:51;;;;;;;20.65;4.60;;;10.40;99.90;;;;;;5003076;28;20496;-74
2023/12/18 03:19:18;;;;;;;21.63;3.95;;;10.40;99.90;;;;;;5005879;28;20083;-74
2023/12/18 03:21:44;;;;;;;19.17;5.00;;;10.30;99.90;;;;;;5000796;28;20030;-74
2023/12/18 03:24:10;;;;;;;26.30;4.75;;;10.30;99.90;;;;;;5007400;28;20425;-73
2023/12/18 03:26:35;;;;;;;21.33;4.53;;;10.40;99.90;;;;;;5006402;28;20041;-75
2023/12/18 03:29:01;;;;;;;18.95;4.82;;;10.30;99.90;;;;;;5004119;28;20026;-75
2023/12/18 03:31:26;;;;;;;21.48;4.75;;;10.30;99.90;;;;;;5007824;28;20417;-76
2023/12/18 03:33:53;;;;;;;16.60;3.92;;;10.30;99.90;;;;;;5004969;28;20500;-76
2023/12/18 03:36:19;;;;;;;18.40;4.53;;;10.30;99.90;;;;;;5003156;28;20026;-74
2023/12/18 03:38:44;;;;;;;22.40;4.85;;;10.40;99.90;;;;;;5004889;28;20459;-73
2023/12/18 03:41:10;;;;;;;23.42;4.63;;;10.40;99.90;;;;;;5004960;28;20093;-75
2023/12/18 03:43:35;;;;;;;18.70;3.90;;;10.40;99.90;;;;;;5008980;28;20036;-74
2023/12/18 03:46:01;;;;;;;23.95;4.88;;;10.40;99.90;;;;;;4999813;28;20026;-74
2023/12/18 03:48:27;;;;;;;23.70;4.53;;;10.40;99.90;;;;;;5007891;28;20038;-74
2023/12/18 03:50:52;;;;;;;20.08;4.88;;;10.40;99.90;;;;;;5004737;28;20066;-73
2023/12/18 03:53:18;;;;;;;22.92;4.47;;;10.40;99.90;;;;;;5006074;28;20117;-73
2023/12/18 03:55:43;;;;;;;22.00;3.97;;;10.50;99.90;;;;;;5000008;28;20467;-75
2023/12/18 03:58:09;;;;;;;19.35;4.13;;;10.50;99.90;;;;;;5006509;28;20038;-75
2023/12/18 04:00:35;;;;;;;22.77;4.30;;;10.40;99.90;;;;;;5007570;28;20036;-75
2023/12/18 04:03:03;;;;;;;20.17;4.10;;;10.40;99.90;;;;;;5003189;28;20022;-75
2023/12/18 04:05:29;;;;;;;18.58;3.92;;;10.40;99.90;;;;;;5003520;28;20117;-74
2023/12/18 04:07:54;;;;;;;24.52;4.75;;;10.40;99.90;;;;;;5010807;28;20590;-74
2023/12/18 04:10:20;;;;;;;18.83;3.65;;;10.40;99.90;;;;;;4979849;28;20036;-76
2023/12/18 04:12:45;;;;;;;17.58;4.00;;;10.40;99.90;;;;;;5006582;28;20029;-75
2023/12/18 04:15:14;;;;;;;21.92;4.20;;;10.40;99.90;;;;;;5000801;28;20026;-74
2023/12/18 04:17:39;;;;;;;17.95;4.35;;;10.30;99.90;;;;;;5004894;28;20027;-76
2023/12/18 04:20:05;;;;;;;23.75;4.45;;;10.40;99.90;;;;;;5010076;28;20107;-75
2023/12/18 04:22:32;;;;;;;16.27;3.80;;;10.30;99.90;;;;;;5005865;28;20058;-75
2023/12/18 04:24:58;;;;;;;24.05;5.40;;;10.30;99.90;;;;;;5000046;28;20072;-73
2023/12/18 04:27:23;;;;;;;26.67;5.05;;;10.30;99.90;;;;;;5001039;28;20171;-75
2023/12/18 04:29:49;;;;;;;24.65;4.10;;;10.30;99.90;;;;;;5007842;28;20382;-76
2023/12/18 04:32:14;;;;;;;16.77;4.20;;;10.30;99.90;;;;;;4999341;28;20021;-75
2023/12/18 04:34:40;;;;;;;23.20;4.07;;;10.40;99.90;;;;;;5007439;28;20061;-73
2023/12/18 04:37:06;;;;;;;22.20;5.15;;;10.40;99.90;;;;;;5003085;28;20026;-75
2023/12/18 04:39:35;;;;;;;16.40;4.13;;;10.40;99.90;;;;;;5005530;28;20072;-73
2023/12/18 04:42:01;;;;;;;26.65;5.55;;;10.40;99.90;;;;;;5007182;28;20382;-75
2023/12/18 04:44:26;;;;;;;24.50;5.40;;;10.40;99.90;;;;;;5003815;28;20033;-72
2023/12/18 04:46:52;;;;;;;31.85;4.82;;;10.40;99.90;;;;;;4998719;28;20042;-75
2023/12/18 04:49:18;;;;;;;21.05;5.10;;;10.40;99.90;;;;;;5008672;28;20076;-74
2023/12/18 04:51:44;;;;;;;22.55;4.90;;;10.40;99.90;;;;;;4999362;28;20061;-75
2023/12/18 04:54:10;;;;;;;26.73;5.65;;;10.40;99.90;;;;;;5005129;28;20062;-75
2023/12/18 04:56:35;;;;;;;20.85;5.32;;;10.40;99.90;;;;;;4999460;28;20386;-74
2023/12/18 04:59:01;;;;;;;20.42;5.63;;;10.30;99.90;;;;;;5001124;28;20100;-74
2023/12/18 05:01:27;;;;;;;24.55;5.65;;;10.30;99.90;;;;;;5004155;28;20026;-74
2023/12/18 05:03:52;;;;;;;25.90;5.25;;;10.30;99.90;;;;;;5003680;28;20026;-73
2023/12/18 05:06:19;;;;;;;24.63;5.30;;;10.30;99.90;;;;;;4997676;28;20041;-73
2023/12/18 05:08:45;;;;;;;25.30;5.40;;;10.30;99.90;;;;;;5004575;28;20034;-75
2023/12/18 05:11:10;;;;;;;23.85;5.55;;;10.30;99.90;;;;;;5007571;28;20132;-76
2023/12/18 05:13:36;;;;;;;26.90;5.47;;;10.30;99.90;;;;;;5004381;28;20034;-75
2023/12/18 05:16:01;;;;;;;25.70;6.50;;;10.30;99.90;;;;;;5001305;28;20096;-74
2023/12/18 05:18:27;;;;;;;25.90;5.70;;;10.40;99.90;;;;;;5002350;28;20104;-74
2023/12/18 05:20:53;;;;;;;24.02;5.88;;;10.40;99.90;;;;;;5005026;28;20034;-75
2023/12/18 05:23:19;;;;;;;25.30;6.65;;;10.30;99.90;;;;;;5004757;28;20026;-73
2023/12/18 05:25:44;;;;;;;25.25;6.35;;;10.30;99.90;;;;;;5006881;28;20027;-74
2023/12/18 05:28:10;;;;;;;28.65;6.95;;;10.20;99.90;;;;;;5006106;28;20073;-75
2023/12/18 05:30:36;;;;;;;26.27;7.25;;;10.20;99.90;;;;;;5001690;28;20033;-74
2023/12/18 05:33:02;;;;;;;23.88;6.30;;;10.10;99.90;;;;;;5001178;28;20032;-75
2023/12/18 05:35:28;;;;;;;28.65;7.35;;;10.10;99.90;;;;;;5008323;28;20018;-75
2023/12/18 05:37:53;;;;;;;26.35;6.45;;;10.10;99.90;;;;;;4996602;28;20034;-74
2023/12/18 05:40:19;;;;;;;28.70;7.00;;;10.10;99.90;;;;;;5007127;28;20042;-75
2023/12/18 05:42:44;;;;;;;26.27;7.25;;;10.10;99.90;;;;;;5002491;28;20034;-75
2023/12/18 05:45:10;;;;;;;23.50;6.53;;;10.00;99.90;;;;;;5004071;28;20038;-75
2023/12/18 05:47:35;;;;;;;24.98;6.28;;;10.00;99.90;;;;;;4998453;28;20043;-75
2023/12/18 05:50:01;;;;;;;27.50;6.35;;;10.00;99.90;;;;;;4999597;28;20030;-74
2023/12/18 05:52:27;;;;;;;27.80;6.22;;;10.00;99.90;;;;;;5004948;28;20033;-73
2023/12/18 05:54:52;;;;;;;23.95;6.07;;;10.00;99.90;;;;;;5003593;28;21071;-75
2023/12/18 05:57:19;;;;;;;28.55;6.88;;;10.00;99.90;;;;;;5004814;28;20385;-76
2023/12/18 05:59:44;;;;;;;24.20;5.65;;;10.10;99.90;;;;;;5000823;28;20034;-74
2023/12/18 06:02:10;;;;;;;22.15;5.78;;;10.00;99.90;;;;;;5000254;28;20033;-75
2023/12/18 06:04:38;;;;;;;23.52;6.57;;;10.00;99.90;;;;;;4978938;28;20084;-76
2023/12/18 06:07:04;;;;;;;27.10;7.13;;;10.00;99.90;;;;;;5009616;28;20043;-73
2023/12/18 06:09:29;;;;;;;26.40;6.63;;;10.00;99.90;;;;;;5002349;28;20072;-74
2023/12/18 06:11:55;;;;;;;27.30;7.13;;;10.00;99.90;;;;;;5004402;28;20097;-73
2023/12/18 06:14:21;;;;;;;23.65;6.82;;;10.00;99.90;;;;;;5011377;28;20112;-75
2023/12/18 06:16:46;;;;;;;30.00;6.53;;;10.10;99.90;;;;;;5015659;28;20069;-77
2023/12/18 06:19:12;;;;;;;24.63;7.15;;;10.00;99.90;;;;;;5016337;28;20054;-76
2023/12/18 06:21:41;;;;;;;27.90;7.88;;;10.00;99.90;;;;;;5001824;28;20034;-74
2023/12/18 06:24:07;;;;;;;30.02;7.80;;;10.10;99.90;;;;;;4995122;28;20022;-75
2023/12/18 06:26:32;;;;;;;27.73;7.03;;;10.10;99.90;;;;;;5002342;28;20037;-74
2023/12/18 06:28:58;;;;;;;26.55;8.48;;;10.10;99.90;;;;;;5008751;28;20037;-73
2023/12/18 06:31:23;;;;;;;21.75;7.13;;;10.10;99.90;;;;;;4996149;28;20372;-74
2023/12/18 06:33:49;;;;;;;27.15;7.20;;;10.10;99.90;;;;;;4996151;28;20497;-74
2023/12/18 06:36:19;;;;;;;28.38;7.85;;;10.10;99.90;;;;;;4996670;28;20509;-74
2023/12/18 06:38:45;;;;;;;22.80;7.22;;;10.10;99.90;;;;;;4996757;28;20105;-73
2023/12/18 06:41:10;;;;;;;24.30;8.18;;;10.10;99.90;;;;;;5003130;28;20080;-73
2023/12/18 06:43:36;;;;;;;25.33;6.43;;;10.10;99.90;;;;;;5005455;28;20022;-74
2023/12/18 06:46:02;;;;;;;24.13;7.50;;;10.10;99.90;;;;;;5007047;28;20034;-75
2023/12/18 06:48:27;;;;;;;29.98;7.57;;;10.10;99.90;;;;;;5004582;28;20059;-75
2023/12/18 06:50:53;;;;;;;22.25;6.50;;;10.10;99.90;;;;;;5008887;28;20437;-75
2023/12/18 06:53:19;;;;;;;23.15;6.68;;;10.10;99.90;;;;;;5002028;28;20030;-76
2023/12/18 06:55:44;;;;;;;29.15;7.30;;;10.10;99.90;;;;;;5003827;28;20026;-76
2023/12/18 06:58:10;;;;;;;27.13;6.72;;;10.10;99.90;;;;;;5007636;28;20125;-76
2023/12/18 07:00:36;;;;;;;22.85;6.22;;;10.10;99.90;;;;;;5000220;28;20030;-76
2023/12/18 07:03:02;;;;;;;22.05;6.03;;;10.00;99.90;;;;;;5011087;28;20034;-76
2023/12/18 07:05:29;;;;;;;25.45;6.03;;;10.00;99.90;;;;;;5003356;28;20052;-74
2023/12/18 07:07:55;;;;;;;22.30;6.15;;;10.00;99.90;;;;;;5010379;28;20042;-76
2023/12/18 07:10:21;;;;;;;26.35;6.38;;;10.10;99.90;;;;;;5007492;28;20026;-76
2023/12/18 07:12:47;;;;;;;22.08;5.80;;;10.10;99.90;;;;;;4999099;28;20029;-75
2023/12/18 07:15:13;;;;;;;19.45;5.43;;;10.10;99.90;;;;;;5008784;28;20030;-74
2023/12/18 07:17:38;;;;;;;24.80;5.70;;;10.10;99.90;;;;;;4999445;28;20049;-75
2023/12/18 07:20:05;;;;;;;24.27;5.43;;;10.10;99.90;;;;;;5004894;28;20401;-73
2023/12/18 07:22:33;;;;;;;20.33;4.70;;;10.20;99.90;;;;;;4993266;28;20036;-75
2023/12/18 07:24:58;;;;;;;21.55;5.50;;;10.20;99.90;;;;;;4995746;28;20031;-76
2023/12/18 07:27:24;;;;;;;22.35;4.22;;;10.30;99.90;;;;;;5005106;28;20038;-75
2023/12/18 07:29:50;;;;;;;22.65;4.97;;;10.30;99.90;;;;;;4981814;28;20046;-74
2023/12/18 07:32:15;;;;;;;23.75;5.85;;;10.30;99.90;;;;;;5006275;28;20354;-75
2023/12/18 07:34:41;;;;;;;26.48;4.93;;;10.40;99.90;;;;;;5002649;28;20022;-74
2023/12/18 07:37:07;;;;;;;19.58;5.13;;;10.40;99.90;;;;;;5001464;28;20038;-74
2023/12/18 07:39:32;;;;;;;25.38;5.05;;;10.40;99.90;;;;;;5003019;28;20022;-74
2023/12/18 07:41:58;;;;;;;24.23;5.20;;;10.40;99.90;;;;;;4996273;28;20026;-74
2023/12/18 07:44:23;;;;;;;26.00;5.13;;;10.40;99.90;;;;;;5001583;28;20036;-73
2023/12/18 07:46:52;;;;;;;19.60;4.95;;;10.40;99.90;;;;;;5005337;28;20057;-74
2023/12/18 07:49:18;;;;;;;24.08;5.43;;;10.40;99.90;;;;;;5000448;28;20026;-74
2023/12/18 07:51:43;;;;;;;24.85;5.78;;;10.40;99.90;;;;;;4994906;28;20025;-74
2023/12/18 07:54:09;;;;;;;25.27;5.63;;;10.50;99.90;;;;;;4994760;28;20109;-74
2023/12/18 07:56:35;;;;;;;22.48;5.95;;;10.40;99.90;;;;;;5009804;28;20067;-74
2023/12/18 07:59:00;;;;;;;20.20;5.10;;;10.40;99.90;;;;;;4997026;28;20155;-74
2023/12/18 08:01:26;;;;;;;24.58;5.65;;;10.40;99.90;;;;;;5004804;28;20040;-74
2023/12/18 08:03:52;;;;;;;27.08;5.32;;;10.40;99.90;;;;;;5005809;28;20026;-74
2023/12/18 08:06:18;;;;;;;21.98;5.22;;;10.40;99.90;;;;;;4994072;28;20027;-74
2023/12/18 08:08:44;;;;;;;27.02;6.28;;;10.40;99.90;;;;;;4992593;28;20049;-74
2023/12/18 08:11:10;;;;;;;25.10;5.85;;;10.40;99.90;;;;;;4993653;28;20034;-74
2023/12/18 08:13:38;;;;;;;18.58;5.32;;;10.40;99.90;;;;;;4994809;28;20018;-74
2023/12/18 08:16:08;;;;;;;20.75;5.82;;;10.40;99.90;;;;;;4993183;28;20462;-74
2023/12/18 08:18:33;;;;;;;25.75;5.63;;;10.50;99.90;;;;;;4994267;28;20050;-74
2023/12/18 08:20:59;;;;;;;23.42;5.97;;;10.50;99.90;;;;;;4994174;28;20382;-74
2023/12/18 08:23:26;;;;;;;21.83;5.57;;;10.50;99.90;;;;;;4994055;28;20101;-73
2023/12/18 08:25:52;;;;;;;23.23;5.05;;;10.50;99.90;;;;;;4993323;28;20041;-74
2023/12/18 08:28:17;;;;;;;21.10;5.40;;;10.50;99.90;;;;;;4993655;28;20398;-74
2023/12/18 08:30:44;;;;;;;25.50;6.72;;;10.50;99.90;;;;;;4993491;28;20133;-74
2023/12/18 08:33:10;;;;;;;24.20;5.70;;;10.60;99.90;;;;;;4994115;28;20352;-74
2023/12/18 08:35:35;;;;;;;22.40;5.85;;;10.50;99.90;;;;;;4990855;28;20050;-75
2023/12/18 08:38:01;;;;;;;25.23;6.72;;;10.50;99.90;;;;;;4980576;28;20038;-73
2023/12/18 08:40:27;;;;;;;24.38;7.05;;;10.50;99.90;;;;;;4965917;28;20031;-75
2023/12/18 08:42:52;;;;;;;20.15;6.85;;;10.50;99.90;;;;;;4987818;28;20363;-72
2023/12/18 08:45:18;;;;;;;25.65;7.85;;;10.50;99.90;;;;;;4976388;28;20109;-75
2023/12/18 08:47:44;;;;;;;27.10;7.63;;;10.50;99.90;;;;;;4992974;28;20048;-74
2023/12/18 08:50:10;;;;;;;25.90;8.27;;;10.50;99.90;;;;;;4976085;28;20022;-75
2023/12/18 08:52:36;;;;;;;28.08;8.63;;;10.50;99.90;;;;;;4993577;28;20058;-74
2023/12/18 08:55:03;;;;;;;25.52;8.05;;;10.50;99.90;;;;;;4992868;28;20045;-74
2023/12/18 08:57:28;;;;;;;22.40;7.80;;;10.50;99.90;;;;;;4992914;28;20497;-74
2023/12/18 08:59:57;;;;;;;24.08;8.20;;;10.50;99.90;;;;;;4993309;28;20023;-74
2023/12/18 09:02:22;;;;;;;20.65;7.20;;;10.50;99.90;;;;;;4993278;28;20057;-74
2023/12/18 09:04:48;;;;;;;27.88;7.90;;;10.50;99.90;;;;;;4980805;28;20400;-75
2023/12/18 09:07:14;;;;;;;22.67;7.07;;;10.50;99.90;;;;;;4989724;28;20430;-77
2023/12/18 09:09:39;;;;;;;22.75;6.95;;;10.50;99.90;;;;;;4992910;28;20019;-75
2023/12/18 09:12:06;;;;;;;21.85;7.30;;;10.50;99.90;;;;;;4993567;28;20057;-77
2023/12/18 09:14:32;;;;;;;22.90;7.60;;;10.60;99.90;;;;;;4974317;28;20113;-74
2023/12/18 09:16:57;;;;;;;24.05;7.97;;;10.60;99.90;;;;;;4993141;28;20169;-75
2023/12/18 09:19:23;;;;;;;22.60;7.60;;;10.60;99.90;;;;;;4991262;28;20046;-74
2023/12/18 09:21:49;;;;;;;29.52;7.68;;;10.60;99.90;;;;;;4992964;28;20022;-74
2023/12/18 09:24:15;;;;;;;20.67;8.13;;;10.60;99.90;;;;;;4991283;28;20542;-75
2023/12/18 09:26:41;;;;;;;33.70;9.05;;;10.60;99.90;;;;;;4992806;28;20161;-75
2023/12/18 09:29:06;;;;;;;28.33;8.45;;;10.70;99.90;;;;;;4991248;28;20117;-75
2023/12/18 09:31:32;;;;;;;29.30;9.18;;;10.70;99.90;;;;;;4991272;28;20034;-74
2023/12/18 09:33:58;;;;;;;22.83;8.73;;;10.70;99.90;;;;;;4992821;28;20394;-74
2023/12/18 09:36:23;;;;;;;28.45;8.45;;;10.70;99.90;;;;;;4992262;28;20026;-74
2023/12/18 09:38:49;;;;;;;24.23;8.73;;;10.70;99.90;;;;;;4979730;28;20082;-75
2023/12/18 09:41:23;;;;;;;28.55;9.75;;;10.70;99.90;;;;;;4989748;28;20046;-75
2023/12/18 09:43:53;;;;;;;28.88;10.55;;;10.70;99.90;;;;;;4992828;28;20045;-74
2023/12/18 09:46:22;;;;;;;26.00;10.52;;;10.70;99.90;;;;;;4992700;28;20489;-75
2023/12/18 09:48:52;;;;;;;27.27;10.68;;;10.70;99.90;;;;;;4993068;28;20470;-75
2023/12/18 09:51:21;;;;;;;26.88;11.40;;;10.70;99.90;;;;;;4992761;28;20030;-75
2023/12/18 09:53:48;;;;;;;28.23;12.75;;;10.70;99.90;;;;;;4992747;28;20084;-75
2023/12/18 09:56:14;;;;;;;28.38;12.52;;;10.70;99.90;;;;;;4975146;28;20389;-76
2023/12/18 09:58:41;;;;;;;28.25;12.43;;;10.80;99.90;;;;;;4992931;28;20027;-72
2023/12/18 10:01:07;;;;;;;28.35;11.15;;;10.70;99.90;;;;;;4993059;28;20037;-74
2023/12/18 10:03:33;;;;;;;31.98;12.35;;;10.80;99.90;;;;;;4992487;28;20034;-73
2023/12/18 10:05:58;;;;;;;27.25;11.98;;;10.70;99.90;;;;;;4992493;28;20034;-75
2023/12/18 10:08:24;;;;;;;30.25;12.80;;;10.70;99.90;;;;;;4992814;28;20042;-72
2023/12/18 10:10:50;;;;;;;30.25;11.93;;;10.60;99.90;;;;;;4992403;28;20032;-74
2023/12/18 10:13:16;;;;;;;27.92;12.30;;;10.60;99.90;;;;;;4995644;28;20031;-75
2023/12/18 10:15:44;;;;;;;25.80;11.57;;;10.60;99.90;;;;;;5002131;28;20077;-74
2023/12/18 10:18:10;;;;;;;29.50;10.65;;;10.60;99.90;;;;;;4996806;28;20031;-74
2023/12/18 10:20:38;;;;;;;24.15;10.43;;;10.70;99.90;;;;;;4998456;28;20030;-75
2023/12/18 10:23:07;;;;;;;24.67;11.25;;;10.70;99.90;;;;;;4998084;28;20030;-74
2023/12/18 10:25:34;;;;;;;30.30;11.75;;;10.70;99.90;;;;;;4979858;28;20121;-74
2023/12/18 10:27:59;;;;;;;24.73;10.88;;;10.70;99.90;;;;;;4997028;28;20113;-74
2023/12/18 10:30:27;;;;;;;28.42;11.15;;;10.80;99.90;;;;;;4992652;28;20101;-74
2023/12/18 10:32:53;;;;;;;28.60;10.93;;;10.80;99.90;;;;;;4988969;28;20084;-74
2023/12/18 10:35:18;;;;;;;24.55;10.20;;;10.90;99.90;;;;;;4991539;28;20463;-75
2023/12/18 10:37:48;;;;;;;21.45;9.93;;;11.00;99.90;;;;;;4990332;28;20022;-76
2023/12/18 10:40:18;;;;;;;25.88;9.43;;;11.10;99.90;;;;;;4989262;28;20033;-76
2023/12/18 10:42:51;;;;;;;26.67;9.95;;;11.20;99.90;;;;;;4989367;28;20026;-75
2023/12/18 10:45:18;;;;;;;23.33;10.15;;;11.20;99.90;;;;;;4993428;28;20034;-76
2023/12/18 10:47:47;;;;;;;24.33;10.52;;;11.30;99.90;;;;;;4990227;28;20065;-74
2023/12/18 10:50:16;;;;;;;26.85;10.68;;;11.40;99.90;;;;;;4992901;28;20100;-75
2023/12/18 10:52:46;;;;;;;23.92;10.05;;;11.40;99.90;;;;;;4993993;28;20019;-75
2023/12/18 10:55:16;;;;;;;23.35;9.70;;;11.40;99.90;;;;;;4992084;28;20077;-73
2023/12/18 10:57:43;;;;;;;28.10;11.15;;;11.40;99.90;;;;;;4994440;28;20041;-74
2023/12/18 11:00:10;;;;;;;24.77;9.95;;;11.40;99.90;;;;;;4993928;28;20614;-74
2023/12/18 11:02:37;;;;;;;26.02;10.20;;;11.40;99.90;;;;;;5002907;28;20347;-74
2023/12/18 11:05:05;;;;;;;23.15;10.45;;;11.40;99.90;;;;;;5002373;28;20018;-74
2023/12/18 11:07:31;;;;;;;26.05;10.30;;;11.40;99.90;;;;;;4998483;28;20054;-75
2023/12/18 11:09:58;;;;;;;25.00;10.27;;;11.30;99.90;;;;;;5000112;28;20421;-74
2023/12/18 11:12:26;;;;;;;27.15;10.35;;;11.30;99.90;;;;;;5002941;28;20029;-74
2023/12/18 11:15:21;;;;;;;27.55;10.80;;;11.40;99.90;;;;;;5003876;28;20492;-74
2023/12/18 11:17:56;;;;;;;26.52;11.55;;;11.50;99.90;;;;;;5002984;28;20439;-74
2023/12/18 11:20:40;;;;;;;23.73;10.88;;;11.50;99.90;;;;;;5005519;28;20049;-74
2023/12/18 11:23:06;;;;;;;26.90;10.90;;;11.60;99.90;;;;;;5005147;28;20117;-74
2023/12/18 11:25:41;;;;;;;24.50;10.85;;;11.50;99.90;;;;;;5000988;28;20113;-74
2023/12/18 11:28:07;;;;;;;29.48;12.02;;;11.50;99.90;;;;;;5003448;28;20433;-74
2023/12/18 11:30:34;;;;;;;29.02;11.80;;;11.50;99.90;;;;;;5004623;28;20038;-74
2023/12/18 11:33:05;;;;;;;26.30;11.48;;;11.40;99.90;;;;;;5007261;28;20311;-73
2023/12/18 11:35:32;;;;;;;23.95;11.27;;;11.30;99.90;;;;;;5014689;28;20041;-73
2023/12/18 11:38:12;;;;;;;30.23;12.13;;;11.30;99.90;;;;;;5008381;28;20470;-74
2023/12/18 11:40:44;;;;;;;28.13;12.30;;;11.30;99.90;;;;;;5000772;28;20058;-74
2023/12/18 11:43:32;;;;;;;25.17;12.20;;;11.30;99.90;;;;;;4995093;28;20034;-76
2023/12/18 11:46:01;;;;;;;28.50;11.68;;;11.40;99.90;;;;;;4994917;28;20054;-77
2023/12/18 11:48:27;;;;;;;27.02;12.45;;;11.30;99.90;;;;;;4994757;28;20386;-78
2023/12/18 11:50:53;;;;;;;27.00;12.77;;;11.30;99.90;;;;;;4994523;28;20030;-77
2023/12/18 11:53:24;;;;;;;28.60;12.43;;;11.30;99.90;;;;;;4992372;28;20030;-77
2023/12/18 11:55:52;;;;;;;33.20;12.20;;;11.20;99.90;;;;;;4994548;28;20027;-76
2023/12/18 11:58:25;;;;;;;24.67;12.57;;;11.20;99.90;;;;;;4993449;28;20037;-75
2023/12/18 12:00:51;;;;;;;32.35;13.35;;;11.30;99.90;;;;;;4993901;28;20501;-75
2023/12/18 12:03:17;;;;;;;30.70;13.57;;;11.30;99.90;;;;;;4994674;28;20027;-75
2023/12/18 12:05:44;;;;;;;30.23;12.82;;;11.30;99.90;;;;;;4993977;28;20508;-75
2023/12/18 12:08:10;;;;;;;28.40;13.65;;;11.30;99.90;;;;;;4992836;28;20053;-74
2023/12/18 12:10:43;;;;;;;24.58;11.75;;;11.30;99.90;;;;;;4990688;28;20027;-73
2023/12/18 12:13:20;;;;;;;31.30;13.30;;;11.20;99.90;;;;;;4993789;28;20383;-73
2023/12/18 12:16:00;;;;;;;28.15;12.30;;;11.20;99.90;;;;;;4993275;28;20027;-75
2023/12/18 12:18:30;;;;;;;29.55;13.85;;;11.10;99.90;;;;;;4993687;28;20095;-74
2023/12/18 12:20:57;;;;;;;30.13;13.73;;;11.20;99.90;;;;;;4994383;28;20109;-74
2023/12/18 12:23:26;;;;;;;30.05;13.15;;;11.20;99.90;;;;;;4994004;28;20022;-74
2023/12/18 12:25:56;;;;;;;30.10;13.07;;;11.20;99.90;;;;;;4993223;28;20027;-74
2023/12/18 12:28:22;;;;;;;28.90;12.60;;;11.10;99.90;;;;;;4991453;28;20042;-73
2023/12/18 12:30:47;;;;;;;27.90;12.88;;;11.10;99.90;;;;;;4993424;28;20403;-73
2023/12/18 12:33:16;;;;;;;29.65;13.07;;;11.10;99.90;;;;;;4992121;28;20065;-74